createdAt,value
2022-11-01T00:00:59.386Z,1004.18
2022-11-01T00:01:59.423Z,1004.21
2022-11-01T00:02:59.348Z,1004.21
2022-11-01T00:03:59.329Z,1004.20
2022-11-01T00:04:59.309Z,1004.17
2022-11-01T00:05:59.296Z,1004.17
2022-11-01T00:06:59.272Z,1004.15
2022-11-01T00:07:59.661Z,1004.16
2022-11-01T00:08:59.256Z,1004.13
2022-11-01T00:09:59.229Z,1004.12
2022-11-01T00:10:59.204Z,1004.12
2022-11-01T00:11:59.204Z,1004.12
2022-11-01T00:12:59.491Z,1004.12
2022-11-01T00:13:59.145Z,1004.08
2022-11-01T00:14:59.127Z,1004.08
2022-11-01T00:15:59.118Z,1004.10
2022-11-01T00:16:59.089Z,1004.09
2022-11-01T00:17:59.074Z,1004.07
2022-11-01T00:18:59.059Z,1004.15
2022-11-01T00:19:59.038Z,1004.14
2022-11-01T00:20:59.022Z,1004.15
2022-11-01T00:21:59.002Z,1004.19
2022-11-01T00:22:59.275Z,1004.19
2022-11-01T00:23:58.962Z,1004.25
2022-11-01T00:24:58.945Z,1004.24
2022-11-01T00:25:58.926Z,1004.24
2022-11-01T00:26:58.914Z,1004.23
2022-11-01T00:27:59.004Z,1004.24
2022-11-01T00:28:58.881Z,1004.19
2022-11-01T00:29:58.856Z,1004.21
2022-11-01T00:30:58.840Z,1004.17
2022-11-01T00:31:58.818Z,1004.19
2022-11-01T00:32:58.806Z,1004.15
2022-11-01T00:33:58.788Z,1004.21
2022-11-01T00:34:58.766Z,1004.25
2022-11-01T00:35:58.748Z,1004.18
2022-11-01T00:36:58.732Z,1004.16
2022-11-01T00:37:58.927Z,1004.13
2022-11-01T00:38:58.699Z,1004.11
2022-11-01T00:39:58.678Z,1004.08
2022-11-01T00:40:58.653Z,1004.06
2022-11-01T00:41:58.639Z,1004.12
2022-11-01T00:42:58.623Z,1004.12
2022-11-01T00:43:58.623Z,1004.09
2022-11-01T00:44:58.582Z,1004.10
2022-11-01T00:45:58.562Z,1004.05
2022-11-01T00:46:58.549Z,1004.07
2022-11-01T00:47:58.781Z,1004.07
2022-11-01T00:48:58.513Z,1004.05
2022-11-01T00:49:58.495Z,1004.01
2022-11-01T00:50:58.494Z,1004.02
2022-11-01T00:51:58.455Z,1004.04
2022-11-01T00:52:58.438Z,1003.98
2022-11-01T00:53:58.418Z,1003.95
2022-11-01T00:54:58.406Z,1003.99
2022-11-01T00:55:58.387Z,1003.94
2022-11-01T00:56:58.368Z,1003.92
2022-11-01T00:57:58.549Z,1003.92
2022-11-01T00:58:58.326Z,1003.86
2022-11-01T00:59:58.329Z,1003.87
2022-11-01T01:00:58.401Z,1003.80
2022-11-01T01:01:58.447Z,1003.81
2022-11-01T01:02:58.422Z,1003.78
2022-11-01T01:03:58.239Z,1003.82
2022-11-01T01:04:58.221Z,1003.82
2022-11-01T01:05:58.202Z,1003.79
2022-11-01T01:06:58.187Z,1003.79
2022-11-01T01:07:58.166Z,1003.74
2022-11-01T01:08:58.152Z,1003.69
2022-11-01T01:09:58.130Z,1003.71
2022-11-01T01:10:58.112Z,1003.66
2022-11-01T01:11:58.096Z,1003.67
2022-11-01T01:12:58.079Z,1003.65
2022-11-01T01:13:58.057Z,1003.63
2022-11-01T01:14:58.039Z,1003.59
2022-11-01T01:15:58.048Z,1003.54
2022-11-01T01:16:58.018Z,1003.49
2022-11-01T01:17:57.983Z,1003.44
2022-11-01T01:18:57.964Z,1003.43
2022-11-01T01:19:57.957Z,1003.38
2022-11-01T01:20:57.929Z,1003.39
2022-11-01T01:21:57.908Z,1003.36
2022-11-01T01:22:57.893Z,1003.34
2022-11-01T01:23:57.877Z,1003.38
2022-11-01T01:24:57.860Z,1003.36
2022-11-01T01:25:57.849Z,1003.37
2022-11-01T01:26:57.818Z,1003.36
2022-11-01T01:27:57.809Z,1003.34
2022-11-01T01:28:57.786Z,1003.27
2022-11-01T01:29:57.769Z,1003.30
2022-11-01T01:30:57.753Z,1003.33
2022-11-01T01:31:57.751Z,1003.36
2022-11-01T01:32:57.793Z,1003.39
2022-11-01T01:33:57.696Z,1003.39
2022-11-01T01:34:57.683Z,1003.39
2022-11-01T01:35:57.666Z,1003.40
2022-11-01T01:36:57.643Z,1003.40
2022-11-01T01:37:57.621Z,1003.39
2022-11-01T01:38:57.612Z,1003.38
2022-11-01T01:39:57.594Z,1003.31
2022-11-01T01:40:57.568Z,1003.29
2022-11-01T01:41:57.558Z,1003.21
2022-11-01T01:42:57.536Z,1003.17
2022-11-01T01:43:57.524Z,1003.07
2022-11-01T01:44:57.499Z,1002.96
2022-11-01T01:45:57.484Z,1002.93
2022-11-01T01:46:57.467Z,1002.90
2022-11-01T01:47:57.464Z,1002.95
2022-11-01T01:48:57.438Z,1003.00
2022-11-01T01:49:57.416Z,1003.02
2022-11-01T01:50:57.394Z,1003.04
2022-11-01T01:51:57.374Z,1003.08
2022-11-01T01:52:57.355Z,1003.15
2022-11-01T01:53:57.335Z,1003.15
2022-11-01T01:54:57.321Z,1003.18
2022-11-01T01:55:57.307Z,1003.21
2022-11-01T01:56:57.286Z,1003.16
2022-11-01T01:57:57.272Z,1003.22
2022-11-01T01:58:57.255Z,1003.20
2022-11-01T01:59:57.230Z,1003.24
2022-11-01T02:00:57.220Z,1003.26
2022-11-01T02:01:57.300Z,1003.27
2022-11-01T02:02:57.179Z,1003.32
2022-11-01T02:03:57.180Z,1003.28
2022-11-01T02:04:57.144Z,1003.24
2022-11-01T02:05:57.121Z,1003.21
2022-11-01T02:06:57.105Z,1003.25
2022-11-01T02:07:57.087Z,1003.25
2022-11-01T02:08:57.071Z,1003.17
2022-11-01T02:09:57.051Z,1003.11
2022-11-01T02:10:57.030Z,1003.05
2022-11-01T02:11:57.011Z,1003.03
2022-11-01T02:12:56.998Z,1003.01
2022-11-01T02:13:56.980Z,1002.99
2022-11-01T02:14:56.956Z,1002.98
2022-11-01T02:15:56.944Z,1002.95
2022-11-01T02:16:56.925Z,1002.93
2022-11-01T02:17:56.902Z,1002.88
2022-11-01T02:18:56.891Z,1002.82
2022-11-01T02:19:56.890Z,1002.83
2022-11-01T02:20:56.849Z,1002.86
2022-11-01T02:21:56.832Z,1002.92
2022-11-01T02:22:56.811Z,1002.85
2022-11-01T02:23:56.796Z,1002.83
2022-11-01T02:24:56.777Z,1002.81
2022-11-01T02:25:56.757Z,1002.82
2022-11-01T02:26:56.738Z,1002.84
2022-11-01T02:27:56.719Z,1002.88
2022-11-01T02:28:59.366Z,1002.84
2022-11-01T02:29:56.687Z,1002.84
2022-11-01T02:30:56.665Z,1002.85
2022-11-01T02:31:56.665Z,1002.87
2022-11-01T02:32:56.633Z,1002.93
2022-11-01T02:33:56.615Z,1002.91
2022-11-01T02:34:56.591Z,1002.93
2022-11-01T02:35:56.601Z,1002.94
2022-11-01T02:36:56.558Z,1002.90
2022-11-01T02:37:56.544Z,1002.94
2022-11-01T02:38:56.523Z,1002.92
2022-11-01T02:39:56.505Z,1002.89
2022-11-01T02:40:56.490Z,1002.90
2022-11-01T02:41:56.470Z,1002.88
2022-11-01T02:42:56.451Z,1002.86
2022-11-01T02:43:56.436Z,1002.90
2022-11-01T02:44:56.413Z,1002.91
2022-11-01T02:45:56.403Z,1002.96
2022-11-01T02:46:56.382Z,1002.95
2022-11-01T02:47:56.361Z,1002.93
2022-11-01T02:48:56.339Z,1002.97
2022-11-01T02:49:56.325Z,1002.99
2022-11-01T02:50:56.314Z,1002.97
2022-11-01T02:51:56.311Z,1002.97
2022-11-01T02:52:56.274Z,1002.98
2022-11-01T02:53:56.255Z,1003.01
2022-11-01T02:54:56.237Z,1003.04
2022-11-01T02:55:56.216Z,1003.02
2022-11-01T02:56:56.200Z,1003.04
2022-11-01T02:57:56.184Z,1003.01
2022-11-01T02:58:56.164Z,1002.96
2022-11-01T02:59:56.143Z,1002.96
2022-11-01T03:00:56.216Z,1002.97
2022-11-01T03:01:56.228Z,1002.97
2022-11-01T03:02:56.089Z,1002.95
2022-11-01T03:03:56.077Z,1003.00
2022-11-01T03:04:56.056Z,1003.01
2022-11-01T03:05:56.041Z,1003.00
2022-11-01T03:06:56.025Z,1002.99
2022-11-01T03:07:56.019Z,1003.02
2022-11-01T03:08:55.988Z,1003.03
2022-11-01T03:09:55.965Z,1003.02
2022-11-01T03:10:55.946Z,1003.04
2022-11-01T03:11:55.929Z,1003.04
2022-11-01T03:12:55.907Z,1003.02
2022-11-01T03:13:55.902Z,1003.03
2022-11-01T03:14:55.874Z,1003.02
2022-11-01T03:15:55.857Z,1003.00
2022-11-01T03:16:55.838Z,1003.02
2022-11-01T03:17:55.826Z,1003.00
2022-11-01T03:18:55.804Z,1003.01
2022-11-01T03:19:55.788Z,1002.99
2022-11-01T03:20:55.768Z,1002.99
2022-11-01T03:21:55.754Z,1002.94
2022-11-01T03:22:55.740Z,1002.97
2022-11-01T03:23:55.739Z,1002.96
2022-11-01T03:24:55.702Z,1002.90
2022-11-01T03:25:55.686Z,1002.89
2022-11-01T03:26:55.660Z,1002.87
2022-11-01T03:27:55.645Z,1002.92
2022-11-01T03:29:55.608Z,1002.95
2022-11-01T03:30:55.590Z,1002.95
2022-11-01T03:31:55.575Z,1002.95
2022-11-01T03:32:55.556Z,1002.94
2022-11-01T03:33:55.538Z,1002.93
2022-11-01T03:34:55.518Z,1003.00
2022-11-01T03:35:55.500Z,1002.98
2022-11-01T03:36:55.485Z,1002.92
2022-11-01T03:37:55.466Z,1003.01
2022-11-01T03:38:55.454Z,1003.00
2022-11-01T03:39:55.447Z,1002.96
2022-11-01T03:40:55.414Z,1002.93
2022-11-01T03:41:55.400Z,1002.92
2022-11-01T03:42:55.378Z,1002.93
2022-11-01T03:43:55.360Z,1002.92
2022-11-01T03:44:55.341Z,1002.95
2022-11-01T03:45:55.324Z,1003.01
2022-11-01T03:46:55.303Z,1002.97
2022-11-01T03:47:55.290Z,1002.98
2022-11-01T03:48:55.274Z,1003.02
2022-11-01T03:49:55.258Z,1003.04
2022-11-01T03:50:55.235Z,1003.05
2022-11-01T03:51:55.219Z,1003.04
2022-11-01T03:52:55.201Z,1003.05
2022-11-01T03:53:55.184Z,1003.06
2022-11-01T03:54:55.164Z,1003.12
2022-11-01T03:55:55.168Z,1003.15
2022-11-01T03:56:55.131Z,1003.16
2022-11-01T03:57:55.113Z,1003.16
2022-11-01T03:58:55.102Z,1003.19
2022-11-01T03:59:55.077Z,1003.25
2022-11-01T04:00:55.094Z,1003.22
2022-11-01T04:01:55.240Z,1003.26
2022-11-01T04:02:55.025Z,1003.28
2022-11-01T04:03:55.006Z,1003.26
2022-11-01T04:04:54.991Z,1003.25
2022-11-01T04:05:54.971Z,1003.27
2022-11-01T04:06:54.953Z,1003.28
2022-11-01T04:07:54.935Z,1003.28
2022-11-01T04:08:54.916Z,1003.29
2022-11-01T04:09:54.898Z,1003.30
2022-11-01T04:10:54.880Z,1003.31
2022-11-01T04:11:54.884Z,1003.30
2022-11-01T04:12:54.850Z,1003.33
2022-11-01T04:13:54.827Z,1003.33
2022-11-01T04:14:54.811Z,1003.34
2022-11-01T04:15:54.796Z,1003.40
2022-11-01T04:16:54.779Z,1003.37
2022-11-01T04:17:54.758Z,1003.38
2022-11-01T04:18:54.733Z,1003.40
2022-11-01T04:19:54.725Z,1003.40
2022-11-01T04:20:54.702Z,1003.38
2022-11-01T04:21:54.686Z,1003.41
2022-11-01T04:22:54.683Z,1003.41
2022-11-01T04:23:54.650Z,1003.44
2022-11-01T04:24:54.633Z,1003.47
2022-11-01T04:25:54.615Z,1003.43
2022-11-01T04:26:54.596Z,1003.44
2022-11-01T04:27:54.603Z,1003.44
2022-11-01T04:28:54.563Z,1003.46
2022-11-01T04:29:54.544Z,1003.48
2022-11-01T04:30:54.522Z,1003.47
2022-11-01T04:31:54.507Z,1003.47
2022-11-01T04:32:54.492Z,1003.47
2022-11-01T04:33:54.475Z,1003.49
2022-11-01T04:34:54.474Z,1003.47
2022-11-01T04:35:54.439Z,1003.47
2022-11-01T04:36:54.431Z,1003.47
2022-11-01T04:37:54.402Z,1003.49
2022-11-01T04:38:54.383Z,1003.53
2022-11-01T04:39:54.370Z,1003.52
2022-11-01T04:40:54.348Z,1003.55
2022-11-01T04:41:54.332Z,1003.56
2022-11-01T04:42:54.313Z,1003.56
2022-11-01T04:43:54.318Z,1003.52
2022-11-01T04:44:54.280Z,1003.53
2022-11-01T04:45:54.264Z,1003.50
2022-11-01T04:46:54.245Z,1003.49
2022-11-01T04:47:54.224Z,1003.54
2022-11-01T04:48:54.213Z,1003.60
2022-11-01T04:49:54.191Z,1003.55
2022-11-01T04:50:54.178Z,1003.57
2022-11-01T04:51:54.159Z,1003.59
2022-11-01T04:52:54.139Z,1003.53
2022-11-01T04:53:54.126Z,1003.62
2022-11-01T04:54:54.107Z,1003.59
2022-11-01T04:55:54.092Z,1003.53
2022-11-01T04:56:54.067Z,1003.63
2022-11-01T04:57:54.055Z,1003.55
2022-11-01T04:58:54.029Z,1003.60
2022-11-01T04:59:54.034Z,1003.57
2022-11-01T05:00:54.077Z,1003.57
2022-11-01T05:01:54.158Z,1003.63
2022-11-01T05:02:53.961Z,1003.60
2022-11-01T05:03:53.944Z,1003.63
2022-11-01T05:04:53.923Z,1003.62
2022-11-01T05:05:53.911Z,1003.58
2022-11-01T05:06:53.898Z,1003.59
2022-11-01T05:07:53.949Z,1003.61
2022-11-01T05:08:53.865Z,1003.57
2022-11-01T05:09:53.835Z,1003.58
2022-11-01T05:10:53.822Z,1003.57
2022-11-01T05:11:53.807Z,1003.64
2022-11-01T05:12:53.787Z,1003.60
2022-11-01T05:13:53.773Z,1003.61
2022-11-01T05:14:56.714Z,1003.62
2022-11-01T05:16:18.001Z,1003.61
2022-11-01T05:16:53.718Z,1003.67
2022-11-01T05:17:53.699Z,1003.67
2022-11-01T05:18:53.686Z,1003.72
2022-11-01T05:19:53.666Z,1003.69
2022-11-01T05:20:53.644Z,1003.68
2022-11-01T05:21:53.629Z,1003.69
2022-11-01T05:22:53.609Z,1003.67
2022-11-01T05:23:53.593Z,1003.68
2022-11-01T05:24:53.575Z,1003.71
2022-11-01T05:25:53.556Z,1003.71
2022-11-01T05:26:53.540Z,1003.71
2022-11-01T05:27:53.527Z,1003.68
2022-11-01T05:28:53.504Z,1003.75
2022-11-01T05:29:53.489Z,1003.71
2022-11-01T05:30:53.470Z,1003.71
2022-11-01T05:31:53.471Z,1003.70
2022-11-01T05:32:53.433Z,1003.74
2022-11-01T05:33:53.415Z,1003.77
2022-11-01T05:34:53.398Z,1003.74
2022-11-01T05:35:53.385Z,1003.75
2022-11-01T05:36:53.366Z,1003.77
2022-11-01T05:37:53.352Z,1003.80
2022-11-01T05:38:53.335Z,1003.78
2022-11-01T05:39:53.316Z,1003.82
2022-11-01T05:40:53.299Z,1003.79
2022-11-01T05:41:55.561Z,1003.80
2022-11-01T05:42:53.258Z,1003.82
2022-11-01T05:43:53.245Z,1003.90
2022-11-01T05:44:53.227Z,1003.89
2022-11-01T05:45:53.208Z,1003.90
2022-11-01T05:46:53.195Z,1003.93
2022-11-01T05:47:53.197Z,1003.97
2022-11-01T05:48:53.155Z,1003.91
2022-11-01T05:49:53.141Z,1003.98
2022-11-01T05:50:53.118Z,1003.95
2022-11-01T05:51:53.101Z,1004.03
2022-11-01T05:52:53.087Z,1004.02
2022-11-01T05:53:53.071Z,1003.98
2022-11-01T05:54:53.052Z,1004.02
2022-11-01T05:55:53.031Z,1004.09
2022-11-01T05:56:53.018Z,1004.09
2022-11-01T05:57:52.997Z,1004.08
2022-11-01T05:58:52.984Z,1004.11
2022-11-01T05:59:52.966Z,1004.10
2022-11-01T06:00:52.947Z,1004.11
2022-11-01T06:01:53.071Z,1004.15
2022-11-01T06:02:52.909Z,1004.19
2022-11-01T06:03:52.912Z,1004.19
2022-11-01T06:04:52.880Z,1004.24
2022-11-01T06:05:52.868Z,1004.21
2022-11-01T06:06:52.844Z,1004.23
2022-11-01T06:07:52.825Z,1004.25
2022-11-01T06:08:52.816Z,1004.19
2022-11-01T06:09:52.784Z,1004.35
2022-11-01T06:10:52.767Z,1004.31
2022-11-01T06:11:52.751Z,1004.34
2022-11-01T06:12:52.735Z,1004.34
2022-11-01T06:13:52.721Z,1004.32
2022-11-01T06:14:52.702Z,1004.33
2022-11-01T06:15:52.681Z,1004.36
2022-11-01T06:16:52.672Z,1004.35
2022-11-01T06:17:52.649Z,1004.37
2022-11-01T06:18:52.637Z,1004.41
2022-11-01T06:19:52.634Z,1004.40
2022-11-01T06:20:52.596Z,1004.42
2022-11-01T06:21:52.581Z,1004.43
2022-11-01T06:22:52.562Z,1004.35
2022-11-01T06:23:52.543Z,1004.44
2022-11-01T06:24:52.533Z,1004.48
2022-11-01T06:25:52.507Z,1004.44
2022-11-01T06:26:52.490Z,1004.55
2022-11-01T06:27:52.471Z,1004.59
2022-11-01T06:28:52.456Z,1004.59
2022-11-01T06:29:52.439Z,1004.62
2022-11-01T06:30:52.459Z,1004.69
2022-11-01T06:31:52.401Z,1004.68
2022-11-01T06:32:52.387Z,1004.69
2022-11-01T06:33:52.372Z,1004.81
2022-11-01T06:34:52.356Z,1004.80
2022-11-01T06:35:52.347Z,1004.81
2022-11-01T06:36:52.315Z,1004.83
2022-11-01T06:37:52.297Z,1004.84
2022-11-01T06:38:52.279Z,1004.74
2022-11-01T06:39:52.262Z,1004.84
2022-11-01T06:40:52.245Z,1004.87
2022-11-01T06:41:52.225Z,1004.87
2022-11-01T06:42:52.212Z,1004.87
2022-11-01T06:43:52.188Z,1004.83
2022-11-01T06:44:52.180Z,1004.86
2022-11-01T06:45:52.156Z,1004.88
2022-11-01T06:46:52.142Z,1004.90
2022-11-01T06:47:52.119Z,1004.92
2022-11-01T06:48:52.105Z,1004.98
2022-11-01T06:49:52.084Z,1004.97
2022-11-01T06:50:52.069Z,1005.09
2022-11-01T06:51:52.068Z,1005.06
2022-11-01T06:52:52.032Z,1005.06
2022-11-01T06:53:52.019Z,1005.01
2022-11-01T06:54:52.001Z,1005.15
2022-11-01T06:55:51.985Z,1005.10
2022-11-01T06:56:51.964Z,1005.20
2022-11-01T06:57:51.945Z,1005.21
2022-11-01T06:58:51.927Z,1005.27
2022-11-01T06:59:51.912Z,1005.36
2022-11-01T07:00:52.007Z,1005.29
2022-11-01T07:01:52.060Z,1005.34
2022-11-01T07:02:51.909Z,1005.33
2022-11-01T07:03:51.844Z,1005.42
2022-11-01T07:04:51.826Z,1005.36
2022-11-01T07:05:51.804Z,1005.44
2022-11-01T07:06:51.790Z,1005.39
2022-11-01T07:07:51.789Z,1005.45
2022-11-01T07:08:51.750Z,1005.52
2022-11-01T07:09:51.743Z,1005.52
2022-11-01T07:10:51.716Z,1005.57
2022-11-01T07:11:51.702Z,1005.64
2022-11-01T07:12:51.687Z,1005.59
2022-11-01T07:13:51.665Z,1005.52
2022-11-01T07:14:51.649Z,1005.65
2022-11-01T07:15:51.677Z,1005.62
2022-11-01T07:16:51.610Z,1005.62
2022-11-01T07:17:51.599Z,1005.80
2022-11-01T07:18:51.579Z,1005.71
2022-11-01T07:19:51.564Z,1005.72
2022-11-01T07:20:51.548Z,1005.87
2022-11-01T07:21:51.541Z,1005.70
2022-11-01T07:22:51.512Z,1005.80
2022-11-01T07:23:51.505Z,1006.04
2022-11-01T07:24:51.471Z,1005.87
2022-11-01T07:25:51.452Z,1005.93
2022-11-01T07:26:51.440Z,1005.84
2022-11-01T07:27:51.417Z,1005.96
2022-11-01T07:28:51.404Z,1005.92
2022-11-01T07:29:51.383Z,1005.97
2022-11-01T07:30:51.370Z,1006.10
2022-11-01T07:31:51.351Z,1006.13
2022-11-01T07:32:51.332Z,1006.15
2022-11-01T07:33:51.314Z,1006.06
2022-11-01T07:34:51.299Z,1006.07
2022-11-01T07:35:51.280Z,1006.19
2022-11-01T07:36:51.257Z,1006.18
2022-11-01T07:37:51.249Z,1006.22
2022-11-01T07:38:51.230Z,1006.31
2022-11-01T07:39:51.224Z,1006.34
2022-11-01T07:40:51.191Z,1006.35
2022-11-01T07:41:51.174Z,1006.38
2022-11-01T07:42:51.152Z,1006.37
2022-11-01T07:43:51.133Z,1006.42
2022-11-01T07:44:51.119Z,1006.47
2022-11-01T07:45:51.100Z,1006.49
2022-11-01T07:46:51.085Z,1006.46
2022-11-01T07:47:51.066Z,1006.49
2022-11-01T07:48:51.051Z,1006.53
2022-11-01T07:49:51.028Z,1006.46
2022-11-01T07:50:51.019Z,1006.65
2022-11-01T07:51:50.994Z,1006.60
2022-11-01T07:52:50.982Z,1006.61
2022-11-01T07:53:51.006Z,1006.65
2022-11-01T07:54:50.941Z,1006.70
2022-11-01T07:55:50.963Z,1006.70
2022-11-01T07:56:50.914Z,1006.80
2022-11-01T07:57:50.897Z,1006.79
2022-11-01T07:58:50.875Z,1006.82
2022-11-01T07:59:50.863Z,1006.80
2022-11-01T08:00:50.895Z,1006.86
2022-11-01T08:01:50.907Z,1006.83
2022-11-01T08:02:50.804Z,1006.83
2022-11-01T08:03:50.788Z,1006.88
2022-11-01T08:04:50.773Z,1006.72
2022-11-01T08:05:50.756Z,1006.90
2022-11-01T08:06:52.210Z,1006.85
2022-11-01T08:07:50.731Z,1006.93
2022-11-01T08:08:50.700Z,1006.90
2022-11-01T08:09:50.688Z,1006.95
2022-11-01T08:10:50.672Z,1006.96
2022-11-01T08:11:50.673Z,1006.99
2022-11-01T08:12:50.631Z,1006.99
2022-11-01T08:13:50.616Z,1006.98
2022-11-01T08:14:50.600Z,1007.01
2022-11-01T08:15:50.591Z,1007.02
2022-11-01T08:16:50.566Z,1006.91
2022-11-01T08:17:50.547Z,1006.95
2022-11-01T08:18:50.536Z,1007.01
2022-11-01T08:19:50.512Z,1007.03
2022-11-01T08:20:50.501Z,1006.95
2022-11-01T08:21:50.476Z,1007.13
2022-11-01T08:22:50.464Z,1007.12
2022-11-01T08:23:50.444Z,1007.35
2022-11-01T08:24:50.426Z,1007.58
2022-11-01T08:25:50.408Z,1007.55
2022-11-01T08:26:50.394Z,1007.58
2022-11-01T08:27:50.399Z,1007.58
2022-11-01T08:28:50.363Z,1007.60
2022-11-01T08:29:50.349Z,1007.50
2022-11-01T08:30:50.341Z,1007.38
2022-11-01T08:31:50.322Z,1007.50
2022-11-01T08:32:50.314Z,1007.43
2022-11-01T08:33:50.292Z,1007.40
2022-11-01T08:34:50.283Z,1007.67
2022-11-01T08:35:50.938Z,1007.59
2022-11-01T08:36:50.254Z,1007.99
2022-11-01T08:37:50.250Z,1007.92
2022-11-01T08:38:50.230Z,1007.84
2022-11-01T08:39:50.214Z,1007.96
2022-11-01T08:40:50.205Z,1008.04
2022-11-01T08:41:50.191Z,1007.90
2022-11-01T08:42:50.185Z,1007.78
2022-11-01T08:43:50.187Z,1008.10
2022-11-01T08:44:50.158Z,1008.12
2022-11-01T08:45:50.149Z,1008.05
2022-11-01T08:46:50.138Z,1008.00
2022-11-01T08:47:50.124Z,1008.12
2022-11-01T08:48:50.116Z,1008.15
2022-11-01T08:49:50.107Z,1008.27
2022-11-01T08:50:50.101Z,1008.33
2022-11-01T08:51:50.087Z,1008.31
2022-11-01T08:52:50.081Z,1008.25
2022-11-01T08:53:50.072Z,1008.35
2022-11-01T08:54:50.066Z,1008.34
2022-11-01T08:55:50.087Z,1008.26
2022-11-01T08:56:50.048Z,1008.43
2022-11-01T08:57:50.049Z,1008.47
2022-11-01T08:58:50.036Z,1008.51
2022-11-01T08:59:50.052Z,1008.58
2022-11-01T09:00:50.088Z,1008.62
2022-11-01T09:01:50.119Z,1008.46
2022-11-01T09:02:50.008Z,1008.24
2022-11-01T09:03:49.995Z,1008.31
2022-11-01T09:04:49.997Z,1008.32
2022-11-01T09:05:49.997Z,1008.37
2022-11-01T09:06:49.981Z,1008.27
2022-11-01T09:07:49.970Z,1008.39
2022-11-01T09:08:49.970Z,1008.35
2022-11-01T09:09:49.961Z,1008.32
2022-11-01T09:10:49.956Z,1008.50
2022-11-01T09:11:49.947Z,1008.57
2022-11-01T09:12:49.940Z,1008.56
2022-11-01T09:13:49.933Z,1008.44
2022-11-01T09:14:49.925Z,1008.55
2022-11-01T09:15:49.939Z,1008.67
2022-11-01T09:16:49.913Z,1008.52
2022-11-01T09:17:49.906Z,1008.67
2022-11-01T09:18:49.907Z,1008.65
2022-11-01T09:19:49.899Z,1008.84
2022-11-01T09:20:49.887Z,1008.80
2022-11-01T09:21:49.879Z,1008.86
2022-11-01T09:22:49.873Z,1008.89
2022-11-01T09:23:49.880Z,1008.88
2022-11-01T09:24:49.862Z,1008.96
2022-11-01T09:25:49.857Z,1009.04
2022-11-01T09:26:49.849Z,1009.02
2022-11-01T09:27:49.837Z,1009.01
2022-11-01T09:28:49.838Z,1009.02
2022-11-01T09:29:51.947Z,1009.06
2022-11-01T09:31:01.023Z,1008.98
2022-11-01T09:31:49.832Z,1008.90
2022-11-01T09:32:49.809Z,1008.93
2022-11-01T09:33:49.800Z,1008.92
2022-11-01T09:34:49.797Z,1008.80
2022-11-01T09:35:52.139Z,1008.91
2022-11-01T09:36:49.781Z,1009.05
2022-11-01T09:37:49.779Z,1008.98
2022-11-01T09:38:49.771Z,1008.97
2022-11-01T09:39:49.764Z,1009.10
2022-11-01T09:40:49.757Z,1009.15
2022-11-01T09:41:49.756Z,1009.24
2022-11-01T09:42:49.746Z,1009.10
2022-11-01T09:43:49.738Z,1009.04
2022-11-01T09:44:49.727Z,1009.06
2022-11-01T09:45:49.739Z,1009.07
2022-11-01T09:46:49.721Z,1009.22
2022-11-01T09:47:49.730Z,1009.29
2022-11-01T09:48:49.701Z,1009.32
2022-11-01T09:49:49.695Z,1009.43
2022-11-01T09:50:49.689Z,1009.63
2022-11-01T09:51:49.678Z,1009.81
2022-11-01T09:52:49.673Z,1009.91
2022-11-01T09:53:49.666Z,1009.95
2022-11-01T09:54:49.659Z,1010.06
2022-11-01T09:55:49.656Z,1010.15
2022-11-01T09:56:49.639Z,1009.98
2022-11-01T09:57:49.631Z,1010.24
2022-11-01T09:58:49.629Z,1010.07
2022-11-01T09:59:49.617Z,1010.10
2022-11-01T10:00:49.675Z,1010.09
2022-11-01T10:01:49.728Z,1009.63
2022-11-01T10:02:49.601Z,1009.11
2022-11-01T10:03:49.605Z,1009.73
2022-11-01T10:04:49.582Z,1010.30
2022-11-01T10:05:49.571Z,1010.44
2022-11-01T10:06:49.567Z,1010.45
2022-11-01T10:07:49.571Z,1010.40
2022-11-01T10:08:49.552Z,1010.16
2022-11-01T10:09:49.544Z,1010.15
2022-11-01T10:10:49.538Z,1010.09
2022-11-01T10:11:49.527Z,1010.16
2022-11-01T10:12:49.520Z,1010.15
2022-11-01T10:13:49.506Z,1010.25
2022-11-01T10:14:49.503Z,1010.07
2022-11-01T10:15:49.489Z,1009.97
2022-11-01T10:16:49.487Z,1010.04
2022-11-01T10:17:52.095Z,1009.92
2022-11-01T10:18:49.463Z,1010.02
2022-11-01T10:19:49.508Z,1009.83
2022-11-01T10:20:49.451Z,1009.82
2022-11-01T10:21:49.440Z,1009.98
2022-11-01T10:22:49.429Z,1009.83
2022-11-01T10:23:49.420Z,1009.65
2022-11-01T10:24:49.414Z,1009.35
2022-11-01T10:25:49.404Z,1009.01
2022-11-01T10:26:49.387Z,1008.91
2022-11-01T10:27:49.383Z,1008.91
2022-11-01T10:28:49.373Z,1008.83
2022-11-01T10:29:49.362Z,1008.83
2022-11-01T10:30:49.359Z,1008.84
2022-11-01T10:31:49.337Z,1008.95
2022-11-01T10:32:49.335Z,1008.87
2022-11-01T10:33:49.324Z,1008.81
2022-11-01T10:34:49.310Z,1008.79
2022-11-01T10:35:49.323Z,1008.87
2022-11-01T10:36:49.294Z,1008.81
2022-11-01T10:38:03.919Z,1008.75
2022-11-01T10:39:23.336Z,1008.85
2022-11-01T10:39:58.934Z,1008.75
2022-11-01T10:40:49.272Z,1008.74
2022-11-01T10:41:49.254Z,1008.71
2022-11-01T10:42:49.233Z,1008.77
2022-11-01T10:43:49.240Z,1008.76
2022-11-01T10:44:49.213Z,1008.69
2022-11-01T10:45:49.214Z,1008.85
2022-11-01T10:46:49.215Z,1008.80
2022-11-01T10:47:49.190Z,1008.72
2022-11-01T10:48:49.180Z,1008.79
2022-11-01T10:50:06.605Z,1008.70
2022-11-01T10:50:49.155Z,1008.74
2022-11-01T10:51:49.173Z,1008.70
2022-11-01T10:52:49.136Z,1008.66
2022-11-01T10:53:49.130Z,1008.74
2022-11-01T10:54:49.118Z,1008.66
2022-11-01T10:55:49.102Z,1008.71
2022-11-01T10:56:49.095Z,1008.80
2022-11-01T10:57:49.091Z,1008.81
2022-11-01T10:58:49.076Z,1008.79
2022-11-01T10:59:49.065Z,1008.84
2022-11-01T11:00:49.143Z,1008.76
2022-11-01T11:01:49.188Z,1008.74
2022-11-01T11:02:49.041Z,1008.76
2022-11-01T11:03:49.033Z,1008.69
2022-11-01T11:04:49.019Z,1008.77
2022-11-01T11:05:49.012Z,1008.79
2022-11-01T11:06:49.006Z,1008.83
2022-11-01T11:07:49.003Z,1008.77
2022-11-01T11:08:49.038Z,1008.84
2022-11-01T11:09:49.028Z,1008.89
2022-11-01T11:10:48.971Z,1008.81
2022-11-01T11:11:48.939Z,1008.81
2022-11-01T11:12:48.941Z,1008.76
2022-11-01T11:13:48.925Z,1008.79
2022-11-01T11:14:48.914Z,1008.81
2022-11-01T11:15:48.921Z,1008.72
2022-11-01T11:16:48.895Z,1008.84
2022-11-01T11:17:48.882Z,1008.76
2022-11-01T11:18:48.874Z,1008.79
2022-11-01T11:19:48.861Z,1008.73
2022-11-01T11:20:48.848Z,1008.79
2022-11-01T11:21:48.849Z,1008.81
2022-11-01T11:22:48.839Z,1008.80
2022-11-01T11:23:48.833Z,1008.75
2022-11-01T11:24:48.805Z,1008.70
2022-11-01T11:25:48.798Z,1008.68
2022-11-01T11:26:52.908Z,1008.72
2022-11-01T11:27:48.771Z,1008.69
2022-11-01T11:28:48.772Z,1008.72
2022-11-01T11:29:48.866Z,1008.77
2022-11-01T11:30:48.743Z,1008.76
2022-11-01T11:31:48.733Z,1008.73
2022-11-01T11:32:48.717Z,1008.82
2022-11-01T11:33:48.705Z,1008.76
2022-11-01T11:34:48.704Z,1008.77
2022-11-01T11:35:48.704Z,1008.74
2022-11-01T11:36:48.675Z,1008.78
2022-11-01T11:37:48.666Z,1008.84
2022-11-01T11:38:48.655Z,1008.86
2022-11-01T11:39:48.676Z,1008.85
2022-11-01T11:40:48.636Z,1008.86
2022-11-01T11:41:48.624Z,1008.91
2022-11-01T11:42:48.611Z,1008.98
2022-11-01T11:43:48.599Z,1008.89
2022-11-01T11:44:52.020Z,1008.93
2022-11-01T11:45:48.575Z,1008.99
2022-11-01T11:46:48.568Z,1008.98
2022-11-01T11:47:48.554Z,1008.96
2022-11-01T11:48:48.548Z,1008.99
2022-11-01T11:49:48.539Z,1008.98
2022-11-01T11:50:48.534Z,1009.02
2022-11-01T11:51:48.510Z,1008.93
2022-11-01T11:52:48.507Z,1009.00
2022-11-01T11:53:48.495Z,1009.01
2022-11-01T11:54:48.483Z,1009.04
2022-11-01T11:55:48.485Z,1009.08
2022-11-01T11:56:48.471Z,1009.05
2022-11-01T11:57:48.447Z,1009.03
2022-11-01T11:58:48.441Z,1009.02
2022-11-01T11:59:48.428Z,1009.01
2022-11-01T12:00:48.422Z,1009.02
2022-11-01T12:01:48.614Z,1009.06
2022-11-01T12:02:48.435Z,1009.04
2022-11-01T12:03:48.391Z,1009.09
2022-11-01T12:04:48.374Z,1009.11
2022-11-01T12:05:48.356Z,1009.13
2022-11-01T12:06:48.358Z,1009.16